sensor_id;sensor_type;location;lat;lon;timestamp;temperature;humidity
6270;DHT22;3168;51.684;6.954;2022-11-15T00:02:23;8.60;79.80
6270;DHT22;3168;51.684;6.954;2022-11-15T00:04:49;8.60;79.90
6270;DHT22;3168;51.684;6.954;2022-11-15T00:07:15;8.60;80.70
6270;DHT22;3168;51.684;6.954;2022-11-15T00:09:40;8.70;81.50
6270;DHT22;3168;51.684;6.954;2022-11-15T00:12:06;8.70;80.60
6270;DHT22;3168;51.684;6.954;2022-11-15T00:14:32;8.70;80.80
6270;DHT22;3168;51.684;6.954;2022-11-15T00:16:58;8.60;81.90
6270;DHT22;3168;51.684;6.954;2022-11-15T00:19:24;8.60;82.90
6270;DHT22;3168;51.684;6.954;2022-11-15T00:21:49;8.60;83.30
6270;DHT22;3168;51.684;6.954;2022-11-15T00:24:15;8.60;84.90
6270;DHT22;3168;51.684;6.954;2022-11-15T00:26:41;8.50;87.10
6270;DHT22;3168;51.684;6.954;2022-11-15T00:29:07;8.50;88.10
6270;DHT22;3168;51.684;6.954;2022-11-15T00:31:33;8.60;89.50
6270;DHT22;3168;51.684;6.954;2022-11-15T00:33:58;8.60;88.50
6270;DHT22;3168;51.684;6.954;2022-11-15T00:36:24;8.60;89.40
6270;DHT22;3168;51.684;6.954;2022-11-15T00:38:50;8.60;88.40
6270;DHT22;3168;51.684;6.954;2022-11-15T00:41:16;8.60;88.20
6270;DHT22;3168;51.684;6.954;2022-11-15T00:43:41;8.60;87.50
6270;DHT22;3168;51.684;6.954;2022-11-15T00:46:07;8.60;88.90
6270;DHT22;3168;51.684;6.954;2022-11-15T00:48:33;8.60;90.00
6270;DHT22;3168;51.684;6.954;2022-11-15T00:50:59;8.60;90.10
6270;DHT22;3168;51.684;6.954;2022-11-15T00:53:25;8.60;90.10
6270;DHT22;3168;51.684;6.954;2022-11-15T00:55:50;8.60;89.10
6270;DHT22;3168;51.684;6.954;2022-11-15T00:58:16;8.60;89.10
6270;DHT22;3168;51.684;6.954;2022-11-15T01:00:42;8.60;90.20
6270;DHT22;3168;51.684;6.954;2022-11-15T01:03:08;8.60;90.60
6270;DHT22;3168;51.684;6.954;2022-11-15T01:05:33;8.60;91.00
6270;DHT22;3168;51.684;6.954;2022-11-15T01:07:59;8.60;91.40
6270;DHT22;3168;51.684;6.954;2022-11-15T01:10:25;8.60;91.90
6270;DHT22;3168;51.684;6.954;2022-11-15T01:12:51;8.60;92.40
6270;DHT22;3168;51.684;6.954;2022-11-15T01:15:17;8.60;92.60
6270;DHT22;3168;51.684;6.954;2022-11-15T01:17:43;8.60;93.20
6270;DHT22;3168;51.684;6.954;2022-11-15T01:20:09;8.60;93.50
6270;DHT22;3168;51.684;6.954;2022-11-15T01:22:35;8.60;93.70
6270;DHT22;3168;51.684;6.954;2022-11-15T01:25:01;8.60;93.70
6270;DHT22;3168;51.684;6.954;2022-11-15T01:27:27;8.70;93.70
6270;DHT22;3168;51.684;6.954;2022-11-15T01:29:53;8.70;93.50
6270;DHT22;3168;51.684;6.954;2022-11-15T01:32:19;8.70;93.30
6270;DHT22;3168;51.684;6.954;2022-11-15T01:34:45;8.80;93.70
6270;DHT22;3168;51.684;6.954;2022-11-15T01:37:10;8.70;92.70
6270;DHT22;3168;51.684;6.954;2022-11-15T01:39:36;8.80;92.60
6270;DHT22;3168;51.684;6.954;2022-11-15T01:42:02;8.80;92.60
6270;DHT22;3168;51.684;6.954;2022-11-15T01:44:45;8.80;92.60
6270;DHT22;3168;51.684;6.954;2022-11-15T01:47:16;8.80;92.70
6270;DHT22;3168;51.684;6.954;2022-11-15T01:49:47;8.80;92.70
6270;DHT22;3168;51.684;6.954;2022-11-15T01:52:11;8.80;92.70
6270;DHT22;3168;51.684;6.954;2022-11-15T01:54:35;8.80;93.50
6270;DHT22;3168;51.684;6.954;2022-11-15T01:57:01;8.80;93.00
6270;DHT22;3168;51.684;6.954;2022-11-15T01:59:27;8.80;93.00
6270;DHT22;3168;51.684;6.954;2022-11-15T02:01:53;8.80;92.80
6270;DHT22;3168;51.684;6.954;2022-11-15T02:04:24;8.80;93.10
6270;DHT22;3168;51.684;6.954;2022-11-15T02:06:47;8.80;93.70
6270;DHT22;3168;51.684;6.954;2022-11-15T02:09:13;8.80;94.10
6270;DHT22;3168;51.684;6.954;2022-11-15T02:11:39;8.80;94.40
6270;DHT22;3168;51.684;6.954;2022-11-15T02:14:04;8.80;94.50
6270;DHT22;3168;51.684;6.954;2022-11-15T02:16:56;8.80;94.60
6270;DHT22;3168;51.684;6.954;2022-11-15T02:19:28;8.90;94.90
6270;DHT22;3168;51.684;6.954;2022-11-15T02:21:51;8.80;94.90
6270;DHT22;3168;51.684;6.954;2022-11-15T02:24:29;8.90;94.80
6270;DHT22;3168;51.684;6.954;2022-11-15T02:26:58;8.80;94.70
6270;DHT22;3168;51.684;6.954;2022-11-15T02:29:31;8.90;95.20
6270;DHT22;3168;51.684;6.954;2022-11-15T02:31:59;8.80;95.60
6270;DHT22;3168;51.684;6.954;2022-11-15T02:34:43;8.90;96.20
6270;DHT22;3168;51.684;6.954;2022-11-15T02:37:09;8.90;96.30
6270;DHT22;3168;51.684;6.954;2022-11-15T02:39:35;8.90;96.50
6270;DHT22;3168;51.684;6.954;2022-11-15T02:42:02;8.90;96.90
6270;DHT22;3168;51.684;6.954;2022-11-15T02:44:27;8.90;97.40
6270;DHT22;3168;51.684;6.954;2022-11-15T02:46:54;9.00;97.90
6270;DHT22;3168;51.684;6.954;2022-11-15T02:49:25;9.00;98.00
6270;DHT22;3168;51.684;6.954;2022-11-15T02:51:50;9.10;98.10
6270;DHT22;3168;51.684;6.954;2022-11-15T02:54:20;9.00;98.20
6270;DHT22;3168;51.684;6.954;2022-11-15T02:56:43;9.10;98.50
6270;DHT22;3168;51.684;6.954;2022-11-15T02:59:16;9.20;98.30
6270;DHT22;3168;51.684;6.954;2022-11-15T03:01:52;9.30;98.30
6270;DHT22;3168;51.684;6.954;2022-11-15T03:04:35;9.30;98.30
6270;DHT22;3168;51.684;6.954;2022-11-15T03:07:02;9.30;97.60
6270;DHT22;3168;51.684;6.954;2022-11-15T03:09:41;9.40;98.80
6270;DHT22;3168;51.684;6.954;2022-11-15T03:12:16;9.40;98.70
6270;DHT22;3168;51.684;6.954;2022-11-15T03:14:47;9.50;99.90
6270;DHT22;3168;51.684;6.954;2022-11-15T03:17:12;9.60;99.90
6270;DHT22;3168;51.684;6.954;2022-11-15T03:19:38;9.60;99.90
6270;DHT22;3168;51.684;6.954;2022-11-15T03:22:02;9.70;99.90
6270;DHT22;3168;51.684;6.954;2022-11-15T03:24:27;9.80;99.90
6270;DHT22;3168;51.684;6.954;2022-11-15T03:26:53;9.80;99.90
6270;DHT22;3168;51.684;6.954;2022-11-15T03:29:23;9.80;99.90
6270;DHT22;3168;51.684;6.954;2022-11-15T03:31:49;9.80;99.90
6270;DHT22;3168;51.684;6.954;2022-11-15T03:34:38;9.90;99.90
6270;DHT22;3168;51.684;6.954;2022-11-15T03:37:02;10.00;99.90
6270;DHT22;3168;51.684;6.954;2022-11-15T03:39:28;10.00;99.90
6270;DHT22;3168;51.684;6.954;2022-11-15T03:42:07;10.00;99.90
6270;DHT22;3168;51.684;6.954;2022-11-15T03:44:42;10.00;99.90
6270;DHT22;3168;51.684;6.954;2022-11-15T03:47:12;10.00;99.90
6270;DHT22;3168;51.684;6.954;2022-11-15T03:49:36;10.00;99.90
6270;DHT22;3168;51.684;6.954;2022-11-15T03:52:02;10.10;99.90
6270;DHT22;3168;51.684;6.954;2022-11-15T03:54:27;10.20;99.90
6270;DHT22;3168;51.684;6.954;2022-11-15T03:56:53;10.20;99.90
6270;DHT22;3168;51.684;6.954;2022-11-15T03:59:19;10.30;99.90
6270;DHT22;3168;51.684;6.954;2022-11-15T04:01:45;10.50;99.90
6270;DHT22;3168;51.684;6.954;2022-11-15T04:04:10;10.80;99.90
6270;DHT22;3168;51.684;6.954;2022-11-15T04:06:36;11.00;99.90
6270;DHT22;3168;51.684;6.954;2022-11-15T04:09:02;11.10;99.90
6270;DHT22;3168;51.684;6.954;2022-11-15T04:11:28;11.20;99.90
6270;DHT22;3168;51.684;6.954;2022-11-15T04:13:54;11.20;99.90
6270;DHT22;3168;51.684;6.954;2022-11-15T04:16:20;11.30;99.90
6270;DHT22;3168;51.684;6.954;2022-11-15T04:18:45;11.40;99.90
6270;DHT22;3168;51.684;6.954;2022-11-15T04:21:11;11.40;99.90
6270;DHT22;3168;51.684;6.954;2022-11-15T04:23:43;11.40;99.90
6270;DHT22;3168;51.684;6.954;2022-11-15T04:26:16;11.40;99.90
6270;DHT22;3168;51.684;6.954;2022-11-15T04:28:41;11.50;99.90
6270;DHT22;3168;51.684;6.954;2022-11-15T04:31:12;11.50;99.90
6270;DHT22;3168;51.684;6.954;2022-11-15T04:33:39;11.50;99.90
6270;DHT22;3168;51.684;6.954;2022-11-15T04:36:05;11.50;99.90
6270;DHT22;3168;51.684;6.954;2022-11-15T04:38:37;11.40;99.90
6270;DHT22;3168;51.684;6.954;2022-11-15T04:41:03;11.50;99.90
6270;DHT22;3168;51.684;6.954;2022-11-15T04:43:29;11.40;99.90
6270;DHT22;3168;51.684;6.954;2022-11-15T04:45:55;11.50;99.90
6270;DHT22;3168;51.684;6.954;2022-11-15T04:48:20;11.50;99.90
6270;DHT22;3168;51.684;6.954;2022-11-15T04:50:47;11.60;99.90
6270;DHT22;3168;51.684;6.954;2022-11-15T04:53:13;11.60;99.90
6270;DHT22;3168;51.684;6.954;2022-11-15T04:55:39;11.50;99.90
6270;DHT22;3168;51.684;6.954;2022-11-15T04:58:04;11.60;99.90
6270;DHT22;3168;51.684;6.954;2022-11-15T05:00:30;11.60;99.90
6270;DHT22;3168;51.684;6.954;2022-11-15T05:02:56;11.60;99.90
6270;DHT22;3168;51.684;6.954;2022-11-15T05:05:28;11.60;99.90
6270;DHT22;3168;51.684;6.954;2022-11-15T05:07:54;11.70;99.90
6270;DHT22;3168;51.684;6.954;2022-11-15T05:10:19;11.70;99.90
6270;DHT22;3168;51.684;6.954;2022-11-15T05:12:46;11.70;99.90
6270;DHT22;3168;51.684;6.954;2022-11-15T05:15:11;11.70;99.90
6270;DHT22;3168;51.684;6.954;2022-11-15T05:17:37;11.90;99.90
6270;DHT22;3168;51.684;6.954;2022-11-15T05:20:03;12.00;99.90
6270;DHT22;3168;51.684;6.954;2022-11-15T05:22:29;12.00;99.90
6270;DHT22;3168;51.684;6.954;2022-11-15T05:24:54;12.00;99.90
6270;DHT22;3168;51.684;6.954;2022-11-15T05:27:20;12.10;99.90
6270;DHT22;3168;51.684;6.954;2022-11-15T05:29:46;12.10;99.20
6270;DHT22;3168;51.684;6.954;2022-11-15T05:32:12;12.00;99.10
6270;DHT22;3168;51.684;6.954;2022-11-15T05:34:37;12.00;99.70
6270;DHT22;3168;51.684;6.954;2022-11-15T05:37:03;12.00;99.60
6270;DHT22;3168;51.684;6.954;2022-11-15T05:39:29;12.10;99.50
6270;DHT22;3168;51.684;6.954;2022-11-15T05:41:59;12.20;99.20
6270;DHT22;3168;51.684;6.954;2022-11-15T05:44:23;12.20;98.60
6270;DHT22;3168;51.684;6.954;2022-11-15T05:46:49;12.20;98.50
6270;DHT22;3168;51.684;6.954;2022-11-15T05:49:15;12.20;97.90
6270;DHT22;3168;51.684;6.954;2022-11-15T05:51:40;12.20;97.50
6270;DHT22;3168;51.684;6.954;2022-11-15T05:54:06;12.20;98.50
6270;DHT22;3168;51.684;6.954;2022-11-15T05:56:32;12.20;99.30
6270;DHT22;3168;51.684;6.954;2022-11-15T05:58:57;12.20;99.90
6270;DHT22;3168;51.684;6.954;2022-11-15T06:01:24;12.20;99.90
6270;DHT22;3168;51.684;6.954;2022-11-15T06:03:49;12.10;99.90
6270;DHT22;3168;51.684;6.954;2022-11-15T06:06:15;12.10;99.90
6270;DHT22;3168;51.684;6.954;2022-11-15T06:08:41;12.10;99.90
6270;DHT22;3168;51.684;6.954;2022-11-15T06:11:07;12.10;99.90
6270;DHT22;3168;51.684;6.954;2022-11-15T06:13:32;12.10;99.90
6270;DHT22;3168;51.684;6.954;2022-11-15T06:15:58;12.10;99.90
6270;DHT22;3168;51.684;6.954;2022-11-15T06:18:24;12.10;99.90
6270;DHT22;3168;51.684;6.954;2022-11-15T06:20:49;12.00;99.90
6270;DHT22;3168;51.684;6.954;2022-11-15T06:23:15;12.00;99.90
6270;DHT22;3168;51.684;6.954;2022-11-15T06:25:41;12.10;99.90
6270;DHT22;3168;51.684;6.954;2022-11-15T06:28:07;12.00;99.90
6270;DHT22;3168;51.684;6.954;2022-11-15T06:30:33;11.90;99.90
6270;DHT22;3168;51.684;6.954;2022-11-15T06:32:59;11.90;99.90
6270;DHT22;3168;51.684;6.954;2022-11-15T06:35:24;11.90;99.90
6270;DHT22;3168;51.684;6.954;2022-11-15T06:37:50;11.90;99.90
6270;DHT22;3168;51.684;6.954;2022-11-15T06:40:16;11.90;99.90
6270;DHT22;3168;51.684;6.954;2022-11-15T06:42:42;11.90;99.90
6270;DHT22;3168;51.684;6.954;2022-11-15T06:45:08;11.90;99.90
6270;DHT22;3168;51.684;6.954;2022-11-15T06:47:34;12.00;99.90
6270;DHT22;3168;51.684;6.954;2022-11-15T06:50:00;12.00;99.90
6270;DHT22;3168;51.684;6.954;2022-11-15T06:52:25;12.10;99.90
6270;DHT22;3168;51.684;6.954;2022-11-15T06:54:51;12.00;99.90
6270;DHT22;3168;51.684;6.954;2022-11-15T06:57:17;12.00;99.90
6270;DHT22;3168;51.684;6.954;2022-11-15T06:59:43;12.00;99.90
6270;DHT22;3168;51.684;6.954;2022-11-15T07:02:11;12.10;99.90
6270;DHT22;3168;51.684;6.954;2022-11-15T07:04:35;12.10;99.90
6270;DHT22;3168;51.684;6.954;2022-11-15T07:07:01;12.10;99.90
6270;DHT22;3168;51.684;6.954;2022-11-15T07:09:27;12.00;99.90
6270;DHT22;3168;51.684;6.954;2022-11-15T07:11:53;12.10;99.90
6270;DHT22;3168;51.684;6.954;2022-11-15T07:14:18;12.10;99.90
6270;DHT22;3168;51.684;6.954;2022-11-15T07:16:44;12.10;99.90
6270;DHT22;3168;51.684;6.954;2022-11-15T07:19:10;12.20;99.90
6270;DHT22;3168;51.684;6.954;2022-11-15T07:21:36;12.10;99.90
6270;DHT22;3168;51.684;6.954;2022-11-15T07:24:02;12.10;99.90
6270;DHT22;3168;51.684;6.954;2022-11-15T07:26:28;12.10;99.90
6270;DHT22;3168;51.684;6.954;2022-11-15T07:28:54;12.00;99.90
6270;DHT22;3168;51.684;6.954;2022-11-15T07:31:19;11.90;99.90
6270;DHT22;3168;51.684;6.954;2022-11-15T07:33:45;11.90;99.90
6270;DHT22;3168;51.684;6.954;2022-11-15T07:36:11;11.80;99.90
6270;DHT22;3168;51.684;6.954;2022-11-15T07:38:37;11.80;99.90
6270;DHT22;3168;51.684;6.954;2022-11-15T07:41:03;11.80;99.90
6270;DHT22;3168;51.684;6.954;2022-11-15T07:43:28;11.80;99.90
6270;DHT22;3168;51.684;6.954;2022-11-15T07:45:54;11.80;99.90
6270;DHT22;3168;51.684;6.954;2022-11-15T07:48:20;11.80;99.90
6270;DHT22;3168;51.684;6.954;2022-11-15T07:50:46;11.80;99.90
6270;DHT22;3168;51.684;6.954;2022-11-15T07:53:12;11.90;99.90
6270;DHT22;3168;51.684;6.954;2022-11-15T07:55:39;11.90;99.90
6270;DHT22;3168;51.684;6.954;2022-11-15T07:58:05;11.90;99.90
6270;DHT22;3168;51.684;6.954;2022-11-15T08:00:30;12.00;99.90
6270;DHT22;3168;51.684;6.954;2022-11-15T08:03:10;12.00;99.90
6270;DHT22;3168;51.684;6.954;2022-11-15T08:05:36;12.10;99.90
6270;DHT22;3168;51.684;6.954;2022-11-15T08:08:02;12.10;99.90
6270;DHT22;3168;51.684;6.954;2022-11-15T08:10:28;12.10;99.90
6270;DHT22;3168;51.684;6.954;2022-11-15T08:12:59;12.20;99.90
6270;DHT22;3168;51.684;6.954;2022-11-15T08:15:25;12.20;97.70
6270;DHT22;3168;51.684;6.954;2022-11-15T08:17:55;12.20;97.70
6270;DHT22;3168;51.684;6.954;2022-11-15T08:20:20;12.30;95.60
6270;DHT22;3168;51.684;6.954;2022-11-15T08:22:47;12.30;94.70
6270;DHT22;3168;51.684;6.954;2022-11-15T08:25:13;12.40;93.50
6270;DHT22;3168;51.684;6.954;2022-11-15T08:27:39;12.40;90.60
6270;DHT22;3168;51.684;6.954;2022-11-15T08:30:05;12.50;85.50
6270;DHT22;3168;51.684;6.954;2022-11-15T08:32:31;12.50;85.20
6270;DHT22;3168;51.684;6.954;2022-11-15T08:34:57;12.50;79.50
6270;DHT22;3168;51.684;6.954;2022-11-15T08:37:23;12.50;78.40
6270;DHT22;3168;51.684;6.954;2022-11-15T08:39:49;12.50;80.00
6270;DHT22;3168;51.684;6.954;2022-11-15T08:42:15;12.40;80.80
6270;DHT22;3168;51.684;6.954;2022-11-15T08:44:40;12.30;83.20
6270;DHT22;3168;51.684;6.954;2022-11-15T08:47:07;12.20;85.40
6270;DHT22;3168;51.684;6.954;2022-11-15T08:49:34;12.10;79.80
6270;DHT22;3168;51.684;6.954;2022-11-15T08:51:59;12.00;79.70
6270;DHT22;3168;51.684;6.954;2022-11-15T08:54:25;11.90;77.20
6270;DHT22;3168;51.684;6.954;2022-11-15T08:56:51;11.90;80.70
6270;DHT22;3168;51.684;6.954;2022-11-15T08:59:17;11.90;84.60
6270;DHT22;3168;51.684;6.954;2022-11-15T09:01:43;11.90;85.80
6270;DHT22;3168;51.684;6.954;2022-11-15T09:04:08;11.90;88.00
6270;DHT22;3168;51.684;6.954;2022-11-15T09:06:34;11.90;89.20
6270;DHT22;3168;51.684;6.954;2022-11-15T09:09:00;11.90;89.30
6270;DHT22;3168;51.684;6.954;2022-11-15T09:11:26;11.90;91.40
6270;DHT22;3168;51.684;6.954;2022-11-15T09:13:52;11.90;92.10
6270;DHT22;3168;51.684;6.954;2022-11-15T09:16:18;11.90;91.60
6270;DHT22;3168;51.684;6.954;2022-11-15T09:18:44;11.90;91.60
6270;DHT22;3168;51.684;6.954;2022-11-15T09:21:10;11.90;92.40
6270;DHT22;3168;51.684;6.954;2022-11-15T09:23:36;11.90;93.30
6270;DHT22;3168;51.684;6.954;2022-11-15T09:26:03;11.80;93.30
6270;DHT22;3168;51.684;6.954;2022-11-15T09:28:28;11.70;94.90
6270;DHT22;3168;51.684;6.954;2022-11-15T09:30:58;11.70;95.20
6270;DHT22;3168;51.684;6.954;2022-11-15T09:33:23;11.70;94.50
6270;DHT22;3168;51.684;6.954;2022-11-15T09:35:49;11.60;95.50
6270;DHT22;3168;51.684;6.954;2022-11-15T09:38:16;11.50;96.20
6270;DHT22;3168;51.684;6.954;2022-11-15T09:40:42;11.50;96.10
6270;DHT22;3168;51.684;6.954;2022-11-15T09:43:31;11.50;96.70
6270;DHT22;3168;51.684;6.954;2022-11-15T09:46:43;11.50;96.90
6270;DHT22;3168;51.684;6.954;2022-11-15T09:48:57;11.60;97.10
6270;DHT22;3168;51.684;6.954;2022-11-15T09:51:30;11.80;96.10
6270;DHT22;3168;51.684;6.954;2022-11-15T09:54:00;11.80;95.20
6270;DHT22;3168;51.684;6.954;2022-11-15T09:56:27;11.80;94.40
6270;DHT22;3168;51.684;6.954;2022-11-15T10:02:42;11.80;94.00
6270;DHT22;3168;51.684;6.954;2022-11-15T10:04:46;11.90;95.30
6270;DHT22;3168;51.684;6.954;2022-11-15T10:07:16;12.00;94.30
6270;DHT22;3168;51.684;6.954;2022-11-15T10:10:00;12.10;93.70
6270;DHT22;3168;51.684;6.954;2022-11-15T10:12:23;12.30;92.50
6270;DHT22;3168;51.684;6.954;2022-11-15T10:14:49;12.30;90.10
6270;DHT22;3168;51.684;6.954;2022-11-15T10:17:37;12.20;90.10
6270;DHT22;3168;51.684;6.954;2022-11-15T10:20:10;12.20;91.10
6270;DHT22;3168;51.684;6.954;2022-11-15T10:22:38;12.20;88.40
6270;DHT22;3168;51.684;6.954;2022-11-15T10:25:14;12.20;89.10
6270;DHT22;3168;51.684;6.954;2022-11-15T10:27:38;12.40;88.00
6270;DHT22;3168;51.684;6.954;2022-11-15T10:30:04;12.40;85.70
6270;DHT22;3168;51.684;6.954;2022-11-15T10:32:29;12.50;83.90
6270;DHT22;3168;51.684;6.954;2022-11-15T10:34:55;12.60;80.80
6270;DHT22;3168;51.684;6.954;2022-11-15T10:37:31;12.70;71.80
6270;DHT22;3168;51.684;6.954;2022-11-15T10:40:04;12.80;65.50
6270;DHT22;3168;51.684;6.954;2022-11-15T10:42:29;12.90;41.80
6270;DHT22;3168;51.684;6.954;2022-11-15T10:44:55;12.90;41.70
6270;DHT22;3168;51.684;6.954;2022-11-15T10:47:30;12.90;24.90
6270;DHT22;3168;51.684;6.954;2022-11-15T10:50:03;12.90;16.10
6270;DHT22;3168;51.684;6.954;2022-11-15T10:52:27;12.90;18.60
6270;DHT22;3168;51.684;6.954;2022-11-15T10:54:59;13.00;14.80
6270;DHT22;3168;51.684;6.954;2022-11-15T10:57:24;13.10;15.30
6270;DHT22;3168;51.684;6.954;2022-11-15T10:59:52;13.10;13.70
6270;DHT22;3168;51.684;6.954;2022-11-15T11:02:28;13.10;15.20
6270;DHT22;3168;51.684;6.954;2022-11-15T11:04:52;13.10;15.30
6270;DHT22;3168;51.684;6.954;2022-11-15T11:07:20;13.30;12.00
6270;DHT22;3168;51.684;6.954;2022-11-15T11:09:45;13.30;9.40
6270;DHT22;3168;51.684;6.954;2022-11-15T11:12:11;13.30;9.10
6270;DHT22;3168;51.684;6.954;2022-11-15T11:14:38;13.40;7.40
6270;DHT22;3168;51.684;6.954;2022-11-15T11:17:29;13.40;1.00
6270;DHT22;3168;51.684;6.954;2022-11-15T11:19:56;13.40;1.00
6270;DHT22;3168;51.684;6.954;2022-11-15T11:22:30;13.40;1.00
6270;DHT22;3168;51.684;6.954;2022-11-15T11:25:11;13.50;1.00
6270;DHT22;3168;51.684;6.954;2022-11-15T11:27:43;13.50;1.00
6270;DHT22;3168;51.684;6.954;2022-11-15T11:30:14;13.40;1.00
6270;DHT22;3168;51.684;6.954;2022-11-15T11:32:57;13.40;1.00
6270;DHT22;3168;51.684;6.954;2022-11-15T11:38:15;13.40;1.00
6270;DHT22;3168;51.684;6.954;2022-11-15T11:40:44;13.50;1.00
6270;DHT22;3168;51.684;6.954;2022-11-15T11:43:24;13.50;1.00
6270;DHT22;3168;51.684;6.954;2022-11-15T11:46:13;13.50;1.00
6270;DHT22;3168;51.684;6.954;2022-11-15T11:48:43;13.60;1.00
6270;DHT22;3168;51.684;6.954;2022-11-15T11:51:18;13.60;1.00
6270;DHT22;3168;51.684;6.954;2022-11-15T11:53:49;13.50;1.00
6270;DHT22;3168;51.684;6.954;2022-11-15T11:56:16;13.40;1.00
6270;DHT22;3168;51.684;6.954;2022-11-15T11:58:41;13.40;1.00
6270;DHT22;3168;51.684;6.954;2022-11-15T12:01:23;13.40;1.00
6270;DHT22;3168;51.684;6.954;2022-11-15T12:03:54;13.40;1.00
6270;DHT22;3168;51.684;6.954;2022-11-15T12:06:36;13.40;1.00
6270;DHT22;3168;51.684;6.954;2022-11-15T12:09:26;13.40;1.00
6270;DHT22;3168;51.684;6.954;2022-11-15T12:11:57;13.50;1.00
6270;DHT22;3168;51.684;6.954;2022-11-15T12:17:03;13.60;1.00
6270;DHT22;3168;51.684;6.954;2022-11-15T12:19:29;13.70;1.00
6270;DHT22;3168;51.684;6.954;2022-11-15T12:21:59;13.70;1.00
6270;DHT22;3168;51.684;6.954;2022-11-15T12:27:00;13.80;1.00
6270;DHT22;3168;51.684;6.954;2022-11-15T12:29:26;13.90;1.00
6270;DHT22;3168;51.684;6.954;2022-11-15T12:31:50;13.90;1.00
6270;DHT22;3168;51.684;6.954;2022-11-15T12:34:29;13.90;1.00
6270;DHT22;3168;51.684;6.954;2022-11-15T12:36:42;14.00;1.00
6270;DHT22;3168;51.684;6.954;2022-11-15T12:39:08;13.90;1.00
6270;DHT22;3168;51.684;6.954;2022-11-15T12:41:35;13.80;1.00
6270;DHT22;3168;51.684;6.954;2022-11-15T12:44:00;13.80;1.00
6270;DHT22;3168;51.684;6.954;2022-11-15T12:47:00;13.70;1.00
6270;DHT22;3168;51.684;6.954;2022-11-15T12:49:43;13.70;1.00
6270;DHT22;3168;51.684;6.954;2022-11-15T12:52:09;13.60;1.00
6270;DHT22;3168;51.684;6.954;2022-11-15T12:54:52;13.60;1.00
6270;DHT22;3168;51.684;6.954;2022-11-15T12:57:33;13.70;1.00
6270;DHT22;3168;51.684;6.954;2022-11-15T12:59:59;13.60;1.00
6270;DHT22;3168;51.684;6.954;2022-11-15T13:02:25;13.60;1.00
6270;DHT22;3168;51.684;6.954;2022-11-15T13:04:51;13.60;1.00
6270;DHT22;3168;51.684;6.954;2022-11-15T13:09:54;13.60;1.00
6270;DHT22;3168;51.684;6.954;2022-11-15T13:12:53;13.60;1.00
6270;DHT22;3168;51.684;6.954;2022-11-15T13:15:34;13.60;1.00
6270;DHT22;3168;51.684;6.954;2022-11-15T13:18:18;13.60;1.00
6270;DHT22;3168;51.684;6.954;2022-11-15T13:20:27;13.60;1.00
6270;DHT22;3168;51.684;6.954;2022-11-15T13:23:02;13.60;1.00
6270;DHT22;3168;51.684;6.954;2022-11-15T13:25:41;13.70;1.00
6270;DHT22;3168;51.684;6.954;2022-11-15T13:28:36;13.60;1.00
6270;DHT22;3168;51.684;6.954;2022-11-15T13:31:23;13.60;1.00
6270;DHT22;3168;51.684;6.954;2022-11-15T13:33:48;13.60;1.00
6270;DHT22;3168;51.684;6.954;2022-11-15T13:36:18;13.60;1.00
6270;DHT22;3168;51.684;6.954;2022-11-15T13:38:41;13.60;1.00
6270;DHT22;3168;51.684;6.954;2022-11-15T13:41:18;13.60;1.00
6270;DHT22;3168;51.684;6.954;2022-11-15T13:43:40;13.70;1.00
6270;DHT22;3168;51.684;6.954;2022-11-15T13:46:09;13.70;1.00
6270;DHT22;3168;51.684;6.954;2022-11-15T13:48:33;13.80;1.00
6270;DHT22;3168;51.684;6.954;2022-11-15T13:51:00;13.80;1.00
6270;DHT22;3168;51.684;6.954;2022-11-15T13:53:25;13.80;1.00
6270;DHT22;3168;51.684;6.954;2022-11-15T13:55:51;13.70;1.00
6270;DHT22;3168;51.684;6.954;2022-11-15T13:58:17;13.70;1.00
6270;DHT22;3168;51.684;6.954;2022-11-15T14:00:44;13.70;1.00
6270;DHT22;3168;51.684;6.954;2022-11-15T14:03:23;13.70;1.00
6270;DHT22;3168;51.684;6.954;2022-11-15T14:06:02;13.70;1.00
6270;DHT22;3168;51.684;6.954;2022-11-15T14:08:24;13.60;1.00
6270;DHT22;3168;51.684;6.954;2022-11-15T14:11:05;13.70;1.00
6270;DHT22;3168;51.684;6.954;2022-11-15T14:13:27;13.70;1.00
6270;DHT22;3168;51.684;6.954;2022-11-15T14:15:51;13.70;1.00
6270;DHT22;3168;51.684;6.954;2022-11-15T14:21:06;13.50;1.00
6270;DHT22;3168;51.684;6.954;2022-11-15T14:23:31;13.60;1.00
6270;DHT22;3168;51.684;6.954;2022-11-15T14:25:57;13.60;1.00
6270;DHT22;3168;51.684;6.954;2022-11-15T14:28:37;13.60;1.00
6270;DHT22;3168;51.684;6.954;2022-11-15T14:31:07;13.60;1.00
6270;DHT22;3168;51.684;6.954;2022-11-15T14:33:32;13.60;1.00
6270;DHT22;3168;51.684;6.954;2022-11-15T14:36:04;13.60;1.00
6270;DHT22;3168;51.684;6.954;2022-11-15T14:38:24;13.60;1.00
6270;DHT22;3168;51.684;6.954;2022-11-15T14:40:49;13.60;1.00
6270;DHT22;3168;51.684;6.954;2022-11-15T14:43:15;13.60;1.00
6270;DHT22;3168;51.684;6.954;2022-11-15T14:45:41;13.60;1.00
6270;DHT22;3168;51.684;6.954;2022-11-15T14:48:07;13.60;1.00
6270;DHT22;3168;51.684;6.954;2022-11-15T14:50:33;13.60;1.00
6270;DHT22;3168;51.684;6.954;2022-11-15T14:52:58;13.60;1.00
6270;DHT22;3168;51.684;6.954;2022-11-15T14:55:27;13.60;1.00
6270;DHT22;3168;51.684;6.954;2022-11-15T14:57:52;13.50;1.00
6270;DHT22;3168;51.684;6.954;2022-11-15T15:00:18;13.50;1.00
6270;DHT22;3168;51.684;6.954;2022-11-15T15:02:44;13.40;1.00
6270;DHT22;3168;51.684;6.954;2022-11-15T15:05:26;13.40;1.00
6270;DHT22;3168;51.684;6.954;2022-11-15T15:07:51;13.30;1.00
6270;DHT22;3168;51.684;6.954;2022-11-15T15:13:01;13.30;1.00
6270;DHT22;3168;51.684;6.954;2022-11-15T15:15:33;13.30;1.00
6270;DHT22;3168;51.684;6.954;2022-11-15T15:17:58;13.20;1.00
6270;DHT22;3168;51.684;6.954;2022-11-15T15:23:17;13.10;1.00
6270;DHT22;3168;51.684;6.954;2022-11-15T15:25:43;12.90;1.00
6270;DHT22;3168;51.684;6.954;2022-11-15T15:28:08;13.10;1.00
6270;DHT22;3168;51.684;6.954;2022-11-15T15:30:34;13.00;1.00
6270;DHT22;3168;51.684;6.954;2022-11-15T15:33:00;13.00;1.00
6270;DHT22;3168;51.684;6.954;2022-11-15T15:35:29;13.00;1.00
6270;DHT22;3168;51.684;6.954;2022-11-15T15:37:54;12.90;1.00
6270;DHT22;3168;51.684;6.954;2022-11-15T15:40:20;12.90;1.00
6270;DHT22;3168;51.684;6.954;2022-11-15T15:42:45;12.90;1.00
6270;DHT22;3168;51.684;6.954;2022-11-15T15:45:11;12.90;1.00
6270;DHT22;3168;51.684;6.954;2022-11-15T15:47:37;12.90;1.00
6270;DHT22;3168;51.684;6.954;2022-11-15T15:50:03;12.90;1.00
6270;DHT22;3168;51.684;6.954;2022-11-15T15:52:29;12.90;1.00
6270;DHT22;3168;51.684;6.954;2022-11-15T15:54:55;12.90;1.00
6270;DHT22;3168;51.684;6.954;2022-11-15T16:02:49;12.90;1.00
6270;DHT22;3168;51.684;6.954;2022-11-15T16:05:16;12.80;1.00
6270;DHT22;3168;51.684;6.954;2022-11-15T16:07:42;12.70;1.00
6270;DHT22;3168;51.684;6.954;2022-11-15T16:10:28;12.80;1.00
6270;DHT22;3168;51.684;6.954;2022-11-15T16:12:54;12.70;1.00
6270;DHT22;3168;51.684;6.954;2022-11-15T16:18:04;12.80;1.00
6270;DHT22;3168;51.684;6.954;2022-11-15T16:20:45;12.80;1.00
6270;DHT22;3168;51.684;6.954;2022-11-15T16:23:11;12.80;1.00
6270;DHT22;3168;51.684;6.954;2022-11-15T16:25:39;12.90;1.00
6270;DHT22;3168;51.684;6.954;2022-11-15T16:28:12;13.00;1.00
6270;DHT22;3168;51.684;6.954;2022-11-15T16:30:33;12.80;1.00
6270;DHT22;3168;51.684;6.954;2022-11-15T16:32:59;12.90;1.00
6270;DHT22;3168;51.684;6.954;2022-11-15T16:35:25;12.80;1.00
6270;DHT22;3168;51.684;6.954;2022-11-15T16:37:51;12.80;1.00
6270;DHT22;3168;51.684;6.954;2022-11-15T16:40:23;12.80;1.00
6270;DHT22;3168;51.684;6.954;2022-11-15T16:42:46;12.80;1.00
6270;DHT22;3168;51.684;6.954;2022-11-15T16:45:12;12.80;1.00
6270;DHT22;3168;51.684;6.954;2022-11-15T16:47:38;12.80;1.00